Time;durP1;ratioP1;P1;durP2;ratioP2;P2;SDS_P1;SDS_P2;PMS_P1;PMS_P2;Temp;Humidity;BMP_temperature;BMP_pressure;BME280_temperature;BME280_humidity;BME280_pressure;Samples;Min_cycle;Max_cycle;Signal;HPM_P1;HPM_P2
2021/12/20 00:01:54;;;;;;;31.88;5.70;;;;;;;;;;5154630;27;20043;-72
2021/12/20 00:04:20;;;;;;;38.60;5.75;;;;;;;;;;5119296;27;20163;-73
2021/12/20 00:06:46;;;;;;;35.45;7.15;;;;;;;;;;5154555;27;20050;-71
2021/12/20 00:09:12;;;;;;;33.58;5.72;;;;;;;;;;5154472;27;20050;-72
2021/12/20 00:11:38;;;;;;;28.65;5.30;;;;;;;;;;5154658;27;20047;-71
2021/12/20 00:14:04;;;;;;;33.25;6.15;;;;;;;;;;5136050;27;20066;-71
2021/12/20 00:16:31;;;;;;;37.10;6.32;;;;;;;;;;5136212;27;20047;-71
2021/12/20 00:18:57;;;;;;;30.90;5.35;;;;;;;;;;5154476;27;20340;-72
2021/12/20 00:21:23;;;;;;;29.30;5.95;;;;;;;;;;5154856;27;20046;-71
2021/12/20 00:23:49;;;;;;;35.03;5.72;;;;;;;;;;5154437;27;20099;-71
2021/12/20 00:26:15;;;;;;;38.92;6.72;;;;;;;;;;5136067;27;20486;-71
2021/12/20 00:28:41;;;;;;;35.60;6.40;;;;;;;;;;5154778;27;20043;-71
2021/12/20 00:31:07;;;;;;;45.00;6.30;;;;;;;;;;5154675;27;20039;-72
2021/12/20 00:33:34;;;;;;;42.28;5.65;;;;;;;;;;5156114;27;20054;-71
2021/12/20 00:36:01;;;;;;;33.90;6.47;;;;;;;;;;5159008;27;20062;-71
2021/12/20 00:41:12;;;;;;;33.50;6.30;;;;;;;;;;5126237;27;20054;-71
2021/12/20 00:43:38;;;;;;;34.85;5.60;;;;;;;;;;5158454;27;20091;-73
2021/12/20 00:46:04;;;;;;;37.08;5.60;;;;;;;;;;5158100;27;20042;-71
2021/12/20 00:48:30;;;;;;;34.00;6.13;;;;;;;;;;5158049;27;20177;-71
2021/12/20 00:50:56;;;;;;;41.17;5.57;;;;;;;;;;5139428;27;20034;-71
2021/12/20 00:53:22;;;;;;;25.23;5.00;;;;;;;;;;5157959;27;20043;-70
2021/12/20 00:55:49;;;;;;;27.45;7.13;;;;;;;;;;5157954;27;20043;-71
2021/12/20 00:58:16;;;;;;;28.15;4.95;;;;;;;;;;5157837;27;20042;-71
2021/12/20 01:00:46;;;;;;;23.58;4.50;;;;;;;;;;5158209;27;20092;-71
2021/12/20 01:03:13;;;;;;;25.70;4.47;;;;;;;;;;5157774;27;20046;-71
2021/12/20 01:05:39;;;;;;;27.70;5.40;;;;;;;;;;5139419;27;20042;-71
2021/12/20 01:08:07;;;;;;;26.67;4.15;;;;;;;;;;5157680;27;20039;-72
2021/12/20 01:10:34;;;;;;;28.75;4.32;;;;;;;;;;5157340;27;20042;-71
2021/12/20 01:13:02;;;;;;;20.65;4.28;;;;;;;;;;5158050;27;20432;-71
2021/12/20 01:15:34;;;;;;;21.58;3.92;;;;;;;;;;5157374;27;20097;-71
2021/12/20 01:18:00;;;;;;;17.25;3.78;;;;;;;;;;5138985;27;20498;-70
2021/12/20 01:20:27;;;;;;;16.88;3.35;;;;;;;;;;5157911;27;20048;-70
2021/12/20 01:22:53;;;;;;;;;;;;;;;;;;5122334;27;20099;-72
2021/12/20 01:25:19;;;;;;;22.90;3.95;;;;;;;;;;5157330;27;19919;-73
2021/12/20 01:27:46;;;;;;;20.92;3.70;;;;;;;;;;5157171;27;20050;-73
2021/12/20 01:30:13;;;;;;;21.13;3.92;;;;;;;;;;5138734;27;20390;-74
2021/12/20 01:32:40;;;;;;;19.45;3.72;;;;;;;;;;5157637;27;20053;-71
2021/12/20 01:35:06;;;;;;;;;;;;;;;;;;5139026;27;20047;-73
2021/12/20 01:37:32;;;;;;;21.48;3.40;;;;;;;;;;5157388;27;19926;-73
2021/12/20 01:39:59;;;;;;;20.15;3.35;;;;;;;;;;5157074;27;20452;-72
2021/12/20 01:42:27;;;;;;;20.75;3.08;;;;;;;;;;5156969;27;20046;-72
2021/12/20 01:44:56;;;;;;;20.90;3.20;;;;;;;;;;5156753;27;20047;-72
2021/12/20 01:47:31;;;;;;;22.77;3.58;;;;;;;;;;5156922;27;20126;-73
2021/12/20 01:50:08;;;;;;;22.60;3.85;;;;;;;;;;5139195;27;20071;-71
2021/12/20 01:52:42;;;;;;;18.58;3.50;;;;;;;;;;5157508;27;20050;-71
2021/12/20 01:55:09;;;;;;;18.65;4.05;;;;;;;;;;5156777;27;20042;-71
2021/12/20 01:57:35;;;;;;;23.52;3.33;;;;;;;;;;5157228;27;20093;-71
2021/12/20 02:00:02;;;;;;;17.98;3.38;;;;;;;;;;5156519;27;20038;-73
2021/12/20 02:02:28;;;;;;;16.90;3.28;;;;;;;;;;5138120;27;20043;-72
2021/12/20 02:05:01;;;;;;;21.63;4.03;;;;;;;;;;5137822;27;20062;-72
2021/12/20 02:08:15;;;;;;;18.13;3.70;;;;;;;;;;5156515;27;20098;-72
2021/12/20 02:10:17;;;;;;;16.95;2.97;;;;;;;;;;5123979;27;20549;-72
2021/12/20 02:12:43;;;;;;;17.25;3.95;;;;;;;;;;5156757;27;20375;-71
2021/12/20 02:15:09;;;;;;;16.38;3.10;;;;;;;;;;5156519;27;20055;-72
2021/12/20 02:17:35;;;;;;;18.02;3.30;;;;;;;;;;5155808;27;20538;-71
2021/12/20 02:20:02;;;;;;;15.82;3.17;;;;;;;;;;5156393;27;20129;-72
2021/12/20 02:22:28;;;;;;;24.00;3.90;;;;;;;;;;5156174;27;20115;-72
2021/12/20 02:24:54;;;;;;;26.25;4.50;;;;;;;;;;5137638;27;20039;-74
2021/12/20 02:27:22;;;;;;;25.98;3.85;;;;;;;;;;5138037;27;20178;-73
2021/12/20 02:30:12;;;;;;;19.38;3.70;;;;;;;;;;5156317;27;20050;-72
2021/12/20 02:38:20;;;;;;;22.50;3.65;;;;;;;;;;5155860;27;20086;-72
2021/12/20 02:40:47;;;;;;;17.17;3.75;;;;;;;;;;5155767;27;20439;-72
2021/12/20 02:43:16;;;;;;;22.00;3.67;;;;;;;;;;5155774;27;20091;-72
2021/12/20 02:45:43;;;;;;;22.05;4.60;;;;;;;;;;5156382;27;20383;-72
2021/12/20 02:48:09;;;;;;;21.92;3.88;;;;;;;;;;5155632;27;20057;-72
2021/12/20 02:50:35;;;;;;;25.63;4.00;;;;;;;;;;5155524;27;20039;-72
2021/12/20 02:53:01;;;;;;;20.08;3.25;;;;;;;;;;5155877;27;20042;-72
2021/12/20 02:55:27;;;;;;;20.13;3.85;;;;;;;;;;5136383;27;20055;-73
2021/12/20 02:57:53;;;;;;;19.38;4.05;;;;;;;;;;5155144;27;20078;-72
2021/12/20 03:00:20;;;;;;;31.88;4.32;;;;;;;;;;5155375;27;20092;-72
2021/12/20 03:02:46;;;;;;;22.67;4.43;;;;;;;;;;5155471;27;20049;-72
2021/12/20 03:05:12;;;;;;;21.65;3.50;;;;;;;;;;5137303;27;20052;-73
2021/12/20 03:07:46;;;;;;;19.42;3.35;;;;;;;;;;5136665;27;20047;-72
2021/12/20 03:10:13;;;;;;;21.15;3.67;;;;;;;;;;5138301;27;20049;-73
2021/12/20 03:12:39;;;;;;;22.98;4.18;;;;;;;;;;5155569;27;20111;-72
2021/12/20 03:15:18;;;;;;;17.25;3.17;;;;;;;;;;5154941;27;20431;-72
2021/12/20 03:17:44;;;;;;;18.60;3.38;;;;;;;;;;5155637;27;20062;-71
2021/12/20 03:20:11;;;;;;;21.02;3.55;;;;;;;;;;5155647;27;20145;-72
2021/12/20 03:22:37;;;;;;;;;;;;;;;;;;5137052;27;20395;-72
2021/12/20 03:25:06;;;;;;;24.17;4.07;;;;;;;;;;5155510;27;19919;-71
2021/12/20 03:27:32;;;;;;;20.73;4.00;;;;;;;;;;5154885;27;20060;-72
2021/12/20 03:29:58;;;;;;;28.38;4.63;;;;;;;;;;5136153;27;20121;-72
2021/12/20 03:32:24;;;;;;;25.15;4.18;;;;;;;;;;5154788;27;20051;-72
2021/12/20 03:34:50;;;;;;;19.77;3.75;;;;;;;;;;5155414;27;20069;-71
2021/12/20 03:37:16;;;;;;;18.90;3.70;;;;;;;;;;5154675;27;20049;-72
2021/12/20 03:39:42;;;;;;;19.77;4.25;;;;;;;;;;5154896;27;20095;-72
2021/12/20 03:42:08;;;;;;;19.50;4.38;;;;;;;;;;5154302;27;20482;-72
2021/12/20 03:44:38;;;;;;;18.75;4.20;;;;;;;;;;5136944;27;20099;-72
2021/12/20 03:47:04;;;;;;;20.63;3.50;;;;;;;;;;5154505;27;20100;-73
2021/12/20 03:49:30;;;;;;;20.83;3.47;;;;;;;;;;5136130;27;20125;-72
2021/12/20 03:51:56;;;;;;;22.30;3.70;;;;;;;;;;5154916;27;20371;-72
2021/12/20 03:54:22;;;;;;;23.35;3.85;;;;;;;;;;5155229;27;20453;-72
2021/12/20 03:56:48;;;;;;;25.25;4.05;;;;;;;;;;5154525;27;20099;-72
2021/12/20 03:59:14;;;;;;;20.73;4.18;;;;;;;;;;5154443;27;20126;-71
2021/12/20 04:01:40;;;;;;;17.15;3.40;;;;;;;;;;5154928;27;20091;-72
2021/12/20 04:04:06;;;;;;;25.33;4.85;;;;;;;;;;5154234;27;20039;-71
2021/12/20 04:06:34;;;;;;;16.25;4.13;;;;;;;;;;5154340;27;20051;-71
2021/12/20 04:09:00;;;;;;;28.27;4.50;;;;;;;;;;5157606;27;20390;-72
2021/12/20 04:11:26;;;;;;;20.45;3.88;;;;;;;;;;5158496;27;20045;-72
2021/12/20 04:13:53;;;;;;;20.80;3.80;;;;;;;;;;5158246;27;20043;-71
2021/12/20 04:16:19;;;;;;;23.10;4.22;;;;;;;;;;5139947;27;20050;-72
2021/12/20 04:18:45;;;;;;;22.17;3.70;;;;;;;;;;5140217;27;20122;-72
2021/12/20 04:21:13;;;;;;;32.78;4.75;;;;;;;;;;5158326;27;20038;-72
2021/12/20 04:23:39;;;;;;;19.30;3.92;;;;;;;;;;5139980;27;20076;-72
2021/12/20 04:26:05;;;;;;;24.00;3.83;;;;;;;;;;5158266;27;20043;-71
2021/12/20 04:28:31;;;;;;;27.38;4.43;;;;;;;;;;5158716;27;20435;-72
2021/12/20 04:30:57;;;;;;;17.08;3.65;;;;;;;;;;5158022;27;20101;-71
2021/12/20 04:33:23;;;;;;;20.75;3.75;;;;;;;;;;5158214;27;20437;-72
2021/12/20 04:35:49;;;;;;;21.55;4.20;;;;;;;;;;5158822;27;20466;-72
2021/12/20 04:38:17;;;;;;;17.48;4.18;;;;;;;;;;5158151;27;20197;-72
2021/12/20 04:40:43;;;;;;;17.73;4.15;;;;;;;;;;5158282;27;20098;-72
2021/12/20 04:43:09;;;;;;;20.00;3.70;;;;;;;;;;5158135;27;20394;-71
2021/12/20 04:45:35;;;;;;;24.77;4.70;;;;;;;;;;5139617;27;20200;-71
2021/12/20 04:48:02;;;;;;;23.05;4.10;;;;;;;;;;5140475;27;20375;-71
2021/12/20 04:50:28;;;;;;;;;;;;;;;;;;5158300;27;20042;-71
2021/12/20 04:52:55;;;;;;;23.25;4.70;;;;;;;;;;5139828;27;19919;-71
2021/12/20 04:55:22;;;;;;;25.45;4.50;;;;;;;;;;5157598;27;20218;-71
2021/12/20 04:57:48;;;;;;;26.30;4.38;;;;;;;;;;5157871;27;20050;-71
2021/12/20 05:00:17;;;;;;;23.02;3.75;;;;;;;;;;5157780;27;20394;-71
2021/12/20 05:02:44;;;;;;;22.80;4.30;;;;;;;;;;5157787;27;20061;-71
2021/12/20 05:05:10;;;;;;;26.58;4.20;;;;;;;;;;5157669;27;20042;-71
2021/12/20 05:07:38;;;;;;;22.08;4.13;;;;;;;;;;5157767;27;20095;-71
2021/12/20 05:10:05;;;;;;;20.15;3.92;;;;;;;;;;5139141;27;20471;-71
2021/12/20 05:12:31;;;;;;;23.33;4.47;;;;;;;;;;5158258;27;20043;-71
2021/12/20 05:14:57;;;;;;;17.58;3.72;;;;;;;;;;5156560;27;20062;-71
2021/12/20 05:17:23;;;;;;;18.92;3.75;;;;;;;;;;5120475;27;20039;-71
2021/12/20 05:19:49;;;;;;;25.98;4.38;;;;;;;;;;5156554;27;20082;-72
2021/12/20 05:22:15;;;;;;;23.65;5.25;;;;;;;;;;5156153;27;20042;-72
2021/12/20 05:24:41;;;;;;;25.77;5.30;;;;;;;;;;5156284;27;20043;-72
2021/12/20 05:27:08;;;;;;;20.00;4.05;;;;;;;;;;5156023;27;20050;-72
2021/12/20 05:29:34;;;;;;;22.38;4.75;;;;;;;;;;5156380;27;20175;-71
2021/12/20 05:32:03;;;;;;;26.25;4.28;;;;;;;;;;5156076;27;20042;-72
2021/12/20 05:34:29;;;;;;;25.58;4.88;;;;;;;;;;5156122;27;20522;-72
2021/12/20 05:36:55;;;;;;;25.75;4.80;;;;;;;;;;5156055;27;20039;-72
2021/12/20 05:39:21;;;;;;;27.92;4.40;;;;;;;;;;5155118;27;20050;-71
2021/12/20 05:41:47;;;;;;;22.33;4.80;;;;;;;;;;5137353;27;20042;-71
2021/12/20 05:44:13;;;;;;;20.33;4.07;;;;;;;;;;5137366;27;20043;-71
2021/12/20 05:46:39;;;;;;;24.08;4.10;;;;;;;;;;5156394;27;20038;-72
2021/12/20 05:49:05;;;;;;;22.67;5.00;;;;;;;;;;5155865;27;20043;-72
2021/12/20 05:51:32;;;;;;;22.27;4.00;;;;;;;;;;5155693;27;20042;-71
2021/12/20 05:53:58;;;;;;;25.35;4.38;;;;;;;;;;5155918;27;20130;-72
2021/12/20 05:56:24;;;;;;;24.17;6.13;;;;;;;;;;5156170;27;20043;-72
2021/12/20 05:58:50;;;;;;;24.45;5.88;;;;;;;;;;5155702;27;20073;-72
2021/12/20 06:01:16;;;;;;;25.33;5.43;;;;;;;;;;5137059;27;20058;-72
2021/12/20 06:03:42;;;;;;;21.65;4.70;;;;;;;;;;5155621;27;20047;-72
2021/12/20 06:06:08;;;;;;;20.40;4.88;;;;;;;;;;5156346;27;20066;-73
2021/12/20 06:08:35;;;;;;;26.48;5.30;;;;;;;;;;5155695;27;20390;-72
2021/12/20 06:11:01;;;;;;;24.88;4.88;;;;;;;;;;5155871;27;20083;-72
2021/12/20 06:13:27;;;;;;;23.23;4.90;;;;;;;;;;5155338;27;20047;-72
2021/12/20 06:15:53;;;;;;;18.02;4.25;;;;;;;;;;5115669;27;1149571;-72
2021/12/20 06:18:19;;;;;;;23.38;5.20;;;;;;;;;;5155719;27;20518;-72
2021/12/20 06:20:45;;;;;;;20.25;4.05;;;;;;;;;;5156056;27;20085;-73
2021/12/20 06:23:12;;;;;;;20.83;4.68;;;;;;;;;;5156120;27;20045;-73
2021/12/20 06:25:38;;;;;;;28.38;5.25;;;;;;;;;;5138081;27;20348;-72
2021/12/20 06:28:04;;;;;;;21.73;5.30;;;;;;;;;;5137352;27;20384;-72
2021/12/20 06:30:30;;;;;;;25.77;5.82;;;;;;;;;;5155134;27;20039;-73
2021/12/20 06:32:56;;;;;;;22.42;5.43;;;;;;;;;;5137496;27;20467;-72
2021/12/20 06:35:22;;;;;;;25.77;5.30;;;;;;;;;;5155600;27;20091;-72
2021/12/20 06:37:59;;;;;;;21.30;5.20;;;;;;;;;;5138071;27;20042;-72
2021/12/20 06:40:25;;;;;;;24.77;5.10;;;;;;;;;;5156032;27;20463;-72
2021/12/20 06:42:51;;;;;;;;;;;;;;;;;;5155698;27;20570;-72
2021/12/20 06:45:17;;;;;;;24.85;5.90;;;;;;;;;;5155623;27;19922;-72
2021/12/20 06:47:43;;;;;;;26.40;5.18;;;;;;;;;;5155537;27;20046;-72
2021/12/20 06:50:10;;;;;;;21.42;4.93;;;;;;;;;;5155446;27;20047;-72
2021/12/20 06:52:36;;;;;;;24.67;5.30;;;;;;;;;;5155376;27;20039;-72
2021/12/20 06:55:02;;;;;;;30.25;6.28;;;;;;;;;;5137190;27;20078;-72
2021/12/20 06:57:28;;;;;;;25.00;4.82;;;;;;;;;;5155259;27;20050;-72
2021/12/20 06:59:54;;;;;;;27.88;6.47;;;;;;;;;;5155930;27;20126;-72
2021/12/20 07:02:20;;;;;;;18.77;5.78;;;;;;;;;;5155373;27;20125;-71
2021/12/20 07:04:46;;;;;;;24.27;6.35;;;;;;;;;;5155367;27;20092;-72
2021/12/20 07:07:12;;;;;;;22.70;5.47;;;;;;;;;;5155365;27;20082;-72
2021/12/20 07:09:38;;;;;;;31.92;6.75;;;;;;;;;;5136957;27;20088;-72
2021/12/20 07:12:04;;;;;;;24.05;5.72;;;;;;;;;;5119673;27;20046;-72
2021/12/20 07:14:31;;;;;;;22.92;5.82;;;;;;;;;;5154556;27;20509;-71
2021/12/20 07:16:57;;;;;;;30.08;5.90;;;;;;;;;;5155272;27;20046;-72
2021/12/20 07:19:23;;;;;;;29.58;6.57;;;;;;;;;;5155096;27;20081;-71
2021/12/20 07:21:49;;;;;;;33.42;8.43;;;;;;;;;;5155131;27;20046;-71
2021/12/20 07:24:16;;;;;;;32.55;7.18;;;;;;;;;;5154965;27;20042;-72
2021/12/20 07:26:42;;;;;;;28.85;6.45;;;;;;;;;;5154444;27;20116;-72
2021/12/20 07:29:08;;;;;;;29.48;6.93;;;;;;;;;;5136229;27;20056;-72
2021/12/20 07:31:34;;;;;;;25.38;6.60;;;;;;;;;;5153996;27;20047;-71
2021/12/20 07:34:00;;;;;;;32.83;7.05;;;;;;;;;;5154596;27;20050;-73
2021/12/20 07:36:26;;;;;;;30.10;7.05;;;;;;;;;;5117908;27;20502;-71
2021/12/20 07:38:52;;;;;;;31.75;7.22;;;;;;;;;;5153729;27;20042;-74
2021/12/20 07:41:19;;;;;;;27.38;6.55;;;;;;;;;;5134810;27;20057;-73
2021/12/20 07:43:46;;;;;;;28.67;7.35;;;;;;;;;;5134532;27;20046;-72
2021/12/20 07:46:12;;;;;;;36.72;7.78;;;;;;;;;;5153049;27;20149;-72
2021/12/20 07:48:38;;;;;;;30.10;8.90;;;;;;;;;;5153501;27;20053;-72
2021/12/20 07:51:04;;;;;;;23.38;7.07;;;;;;;;;;5152795;27;20034;-72
2021/12/20 07:53:31;;;;;;;34.47;7.80;;;;;;;;;;5153146;27;20069;-72
2021/12/20 07:55:57;;;;;;;32.30;8.07;;;;;;;;;;5134340;27;20447;-72
2021/12/20 07:58:23;;;;;;;29.77;7.93;;;;;;;;;;5153523;27;20343;-73
2021/12/20 08:00:50;;;;;;;26.70;8.52;;;;;;;;;;5134599;27;20496;-72
2021/12/20 08:03:16;;;;;;;30.00;8.63;;;;;;;;;;5156740;27;20043;-72
2021/12/20 08:05:42;;;;;;;31.42;7.85;;;;;;;;;;5138193;27;20042;-72
2021/12/20 08:08:08;;;;;;;29.88;8.77;;;;;;;;;;5152806;27;20402;-72
2021/12/20 08:10:35;;;;;;;30.00;8.57;;;;;;;;;;5117215;27;20097;-72
2021/12/20 08:13:01;;;;;;;24.92;8.38;;;;;;;;;;5134352;27;20046;-72
2021/12/20 08:15:28;;;;;;;22.55;9.00;;;;;;;;;;5134288;27;20212;-72
2021/12/20 08:17:53;;;;;;;;;;;;;;;;;;5152867;27;20041;-72
2021/12/20 08:20:20;;;;;;;30.45;9.98;;;;;;;;;;5153394;27;19919;-72
2021/12/20 08:22:46;;;;;;;;;;;;;;;;;;5153111;27;20514;-72
2021/12/20 08:25:12;;;;;;;27.70;10.32;;;;;;;;;;5152762;27;19919;-72
2021/12/20 08:27:38;;;;;;;;;;;;;;;;;;5134463;27;20069;-71
2021/12/20 08:30:05;;;;;;;29.63;10.30;;;;;;;;;;5133948;27;19949;-72
2021/12/20 08:32:32;;;;;;;40.28;11.73;;;;;;;;;;5152469;27;20091;-71
2021/12/20 08:34:58;;;;;;;32.08;11.05;;;;;;;;;;5134773;27;20134;-73
2021/12/20 08:37:25;;;;;;;29.85;10.93;;;;;;;;;;5152336;27;20517;-72
2021/12/20 08:39:51;;;;;;;;;;;;;;;;;;5134240;27;20069;-71
2021/12/20 08:42:17;;;;;;;36.47;12.07;;;;;;;;;;5152502;27;20359;-72
2021/12/20 08:44:43;;;;;;;40.42;14.13;;;;;;;;;;5152455;27;20050;-71
2021/12/20 08:47:09;;;;;;;35.83;12.75;;;;;;;;;;5133927;27;20051;-72
2021/12/20 08:49:35;;;;;;;30.45;11.73;;;;;;;;;;5152930;27;20081;-71
2021/12/20 08:52:01;;;;;;;35.25;12.60;;;;;;;;;;5152342;27;20046;-71
2021/12/20 08:54:29;;;;;;;34.90;12.23;;;;;;;;;;5154452;27;20073;-71
2021/12/20 08:56:56;;;;;;;39.40;12.05;;;;;;;;;;5156302;27;20038;-72
2021/12/20 08:59:22;;;;;;;39.78;13.82;;;;;;;;;;5156005;27;20126;-72
2021/12/20 09:01:48;;;;;;;;;;;;;;;;;;5156398;27;20046;-73
2021/12/20 09:04:15;;;;;;;34.78;12.15;;;;;;;;;;5138037;27;19918;-73
2021/12/20 09:06:42;;;;;;;34.20;12.73;;;;;;;;;;5156122;27;20049;-72
2021/12/20 09:09:09;;;;;;;42.15;11.85;;;;;;;;;;5137353;27;20095;-72
2021/12/20 09:11:35;;;;;;;38.20;11.90;;;;;;;;;;5155936;27;20087;-71
2021/12/20 09:14:02;;;;;;;44.47;10.43;;;;;;;;;;5137445;27;20142;-72
2021/12/20 09:16:28;;;;;;;34.97;10.13;;;;;;;;;;5137336;27;20130;-72
2021/12/20 09:18:54;;;;;;;40.30;10.60;;;;;;;;;;5137328;27;20049;-72
2021/12/20 09:21:20;;;;;;;38.95;11.63;;;;;;;;;;5156417;27;20081;-72
2021/12/20 09:23:47;;;;;;;46.88;11.82;;;;;;;;;;5156280;27;20095;-71
2021/12/20 09:26:13;;;;;;;50.50;10.75;;;;;;;;;;5155729;27;20531;-72
2021/12/20 09:28:39;;;;;;;40.58;10.18;;;;;;;;;;5155953;27;20072;-71
2021/12/20 09:31:05;;;;;;;43.28;9.82;;;;;;;;;;5156147;27;20046;-73
2021/12/20 09:33:31;;;;;;;42.92;10.18;;;;;;;;;;5137120;27;20447;-73
2021/12/20 09:36:01;;;;;;;36.92;8.93;;;;;;;;;;5155884;27;20046;-72
2021/12/20 09:38:30;;;;;;;40.03;10.10;;;;;;;;;;5155602;27;20441;-72
2021/12/20 09:43:34;;;;;;;49.15;10.00;;;;;;;;;;5154971;27;20504;-72
2021/12/20 09:46:00;;;;;;;;;;;;;;;;;;5155623;27;20132;-73
2021/12/20 09:48:26;;;;;;;36.63;9.07;;;;;;;;;;5155555;27;19919;-72
2021/12/20 09:50:52;;;;;;;47.28;9.95;;;;;;;;;;5155236;27;20065;-72
2021/12/20 09:53:19;;;;;;;45.70;9.75;;;;;;;;;;5119640;27;20071;-73
2021/12/20 09:55:49;;;;;;;38.05;9.27;;;;;;;;;;5155391;27;20181;-72
2021/12/20 09:58:16;;;;;;;37.67;9.45;;;;;;;;;;5155137;27;20046;-72
2021/12/20 10:00:42;;;;;;;55.78;10.73;;;;;;;;;;5154928;27;20042;-73
2021/12/20 10:03:08;;;;;;;38.50;8.65;;;;;;;;;;5155459;27;20076;-73
2021/12/20 10:05:35;;;;;;;43.75;9.75;;;;;;;;;;5153674;27;20046;-73
2021/12/20 10:08:11;;;;;;;49.85;9.52;;;;;;;;;;5155358;27;20043;-73
2021/12/20 10:10:40;;;;;;;41.13;9.00;;;;;;;;;;5154959;27;20049;-74
2021/12/20 10:13:06;;;;;;;45.58;9.73;;;;;;;;;;5136605;27;20091;-73
2021/12/20 10:15:37;;;;;;;49.28;8.68;;;;;;;;;;5154858;27;20522;-74
2021/12/20 10:18:04;;;;;;;33.42;7.85;;;;;;;;;;5154746;27;20050;-73
2021/12/20 10:20:31;;;;;;;46.30;8.65;;;;;;;;;;5154894;27;20458;-73
2021/12/20 10:23:14;;;;;;;36.53;8.02;;;;;;;;;;5154583;27;20039;-72
2021/12/20 10:25:40;;;;;;;45.80;8.77;;;;;;;;;;5136684;27;20057;-73
2021/12/20 10:28:06;;;;;;;49.15;9.73;;;;;;;;;;5119406;27;20131;-73
2021/12/20 10:30:34;;;;;;;38.78;8.55;;;;;;;;;;5154387;27;20058;-73
2021/12/20 10:33:02;;;;;;;48.05;8.95;;;;;;;;;;5136355;27;20388;-73
2021/12/20 10:35:31;;;;;;;43.88;8.88;;;;;;;;;;5154469;27;20125;-72
2021/12/20 10:38:00;;;;;;;64.53;9.82;;;;;;;;;;5135890;27;20099;-73
2021/12/20 10:40:26;;;;;;;45.17;8.95;;;;;;;;;;5135931;27;20542;-72
2021/12/20 10:42:53;;;;;;;48.47;9.43;;;;;;;;;;5154176;27;20047;-73
2021/12/20 10:45:20;;;;;;;43.40;9.60;;;;;;;;;;5154812;27;20043;-73
2021/12/20 10:47:50;;;;;;;44.83;9.05;;;;;;;;;;5154169;27;20039;-74
2021/12/20 10:50:25;;;;;;;39.75;9.00;;;;;;;;;;5153927;27;20501;-73
2021/12/20 10:52:52;;;;;;;59.63;10.65;;;;;;;;;;5154064;27;20043;-73
2021/12/20 10:55:37;;;;;;;40.47;8.23;;;;;;;;;;5153998;27;20042;-74
2021/12/20 10:58:37;;;;;;;37.00;9.13;;;;;;;;;;5135380;27;20419;-72
2021/12/20 11:01:03;;;;;;;36.90;8.77;;;;;;;;;;5108596;27;20050;-72
2021/12/20 11:03:34;;;;;;;42.35;8.90;;;;;;;;;;5153948;27;20098;-73
2021/12/20 11:11:27;;;;;;;42.75;9.25;;;;;;;;;;5153490;27;20565;-74
2021/12/20 11:13:54;;;;;;;35.03;8.18;;;;;;;;;;5154978;27;20034;-74
2021/12/20 11:16:31;;;;;;;40.30;7.90;;;;;;;;;;5153492;27;20537;-75
2021/12/20 11:19:12;;;;;;;38.22;7.63;;;;;;;;;;5154119;27;20078;-73
2021/12/20 11:21:39;;;;;;;39.42;7.10;;;;;;;;;;5153555;27;20049;-73
2021/12/20 11:24:25;;;;;;;29.90;7.03;;;;;;;;;;5153521;27;20046;-73
2021/12/20 11:26:52;;;;;;;30.08;6.65;;;;;;;;;;5134391;27;20050;-73
2021/12/20 11:29:18;;;;;;;;;;;;;;;;;;5153697;27;20056;-73
2021/12/20 11:31:45;;;;;;;24.48;5.43;;;;;;;;;;5153313;27;20144;-74
2021/12/20 11:34:11;;;;;;;28.23;6.30;;;;;;;;;;5153428;27;20054;-74
2021/12/20 11:36:37;;;;;;;32.38;6.95;;;;;;;;;;5135390;27;20164;-74
2021/12/20 11:39:05;;;;;;;31.42;5.70;;;;;;;;;;5159121;27;20050;-74
2021/12/20 11:41:31;;;;;;;31.10;6.25;;;;;;;;;;5140640;27;20041;-73
2021/12/20 11:43:58;;;;;;;23.60;5.75;;;;;;;;;;5153643;27;20054;-73
2021/12/20 11:46:29;;;;;;;24.58;4.63;;;;;;;;;;5152926;27;20131;-74
2021/12/20 11:48:57;;;;;;;36.30;5.65;;;;;;;;;;5134998;27;20106;-75
2021/12/20 11:51:23;;;;;;;24.65;4.72;;;;;;;;;;5153268;27;20118;-74
2021/12/20 11:53:49;;;;;;;28.20;4.90;;;;;;;;;;5152538;27;20121;-73
2021/12/20 11:56:15;;;;;;;;;;;;;;;;;;5153013;27;20130;-74
2021/12/20 11:58:48;;;;;;;19.75;4.80;;;;;;;;;;5152928;27;19978;-74
2021/12/20 12:01:16;;;;;;;21.15;3.97;;;;;;;;;;5153383;27;20125;-74
2021/12/20 12:03:52;;;;;;;21.77;4.80;;;;;;;;;;5152902;27;20050;-73
2021/12/20 12:06:24;;;;;;;23.45;4.20;;;;;;;;;;5134515;27;20228;-73
2021/12/20 12:08:52;;;;;;;20.52;4.53;;;;;;;;;;5153041;27;20549;-75
2021/12/20 12:11:19;;;;;;;18.52;4.68;;;;;;;;;;5134101;27;20055;-75
2021/12/20 12:14:02;;;;;;;22.90;4.97;;;;;;;;;;5153219;27;20058;-74
2021/12/20 12:16:47;;;;;;;14.48;3.35;;;;;;;;;;5153041;27;20047;-73
2021/12/20 12:19:33;;;;;;;21.33;4.07;;;;;;;;;;5152796;27;20047;-74
2021/12/20 12:21:59;;;;;;;21.08;3.90;;;;;;;;;;5153111;27;20051;-74
2021/12/20 12:24:44;;;;;;;16.63;3.67;;;;;;;;;;5134582;27;20047;-75
2021/12/20 12:27:21;;;;;;;22.45;4.40;;;;;;;;;;5134199;27;20057;-74
2021/12/20 12:29:52;;;;;;;17.92;4.28;;;;;;;;;;5155400;27;20095;-75
2021/12/20 12:32:18;;;;;;;19.17;4.60;;;;;;;;;;5138429;27;20086;-74
2021/12/20 12:34:45;;;;;;;16.77;3.65;;;;;;;;;;5156638;27;20432;-74
2021/12/20 12:37:29;;;;;;;15.80;3.72;;;;;;;;;;5121307;27;20050;-72
2021/12/20 12:40:14;;;;;;;16.00;2.95;;;;;;;;;;5157007;27;20054;-75
2021/12/20 12:42:49;;;;;;;14.57;3.38;;;;;;;;;;5156953;27;20051;-75
2021/12/20 12:45:17;;;;;;;12.68;2.72;;;;;;;;;;5156609;27;20085;-73
2021/12/20 12:47:43;;;;;;;16.85;3.95;;;;;;;;;;5156845;27;20194;-73
2021/12/20 12:50:24;;;;;;;21.00;3.75;;;;;;;;;;5157116;27;20047;-74
2021/12/20 12:52:50;;;;;;;16.27;3.30;;;;;;;;;;5156848;27;20043;-75
2021/12/20 12:55:25;;;;;;;14.95;3.72;;;;;;;;;;5156590;27;20042;-75
2021/12/20 12:57:52;;;;;;;19.25;3.60;;;;;;;;;;5156890;27;20042;-75
2021/12/20 13:00:23;;;;;;;15.60;3.15;;;;;;;;;;5138020;27;20059;-74
2021/12/20 13:02:51;;;;;;;11.50;2.70;;;;;;;;;;5156738;27;20046;-74
2021/12/20 13:05:21;;;;;;;11.90;2.65;;;;;;;;;;5156555;27;20133;-75
2021/12/20 13:07:48;;;;;;;11.43;2.47;;;;;;;;;;5156998;27;20121;-74
2021/12/20 13:10:15;;;;;;;14.55;2.95;;;;;;;;;;5156175;27;20065;-74
2021/12/20 13:15:16;;;;;;;16.73;3.28;;;;;;;;;;5137748;27;20483;-72
2021/12/20 13:17:47;;;;;;;15.60;3.75;;;;;;;;;;5156322;27;20057;-74
2021/12/20 13:22:54;;;;;;;12.57;2.40;;;;;;;;;;5156738;27;20099;-74
2021/12/20 13:25:32;;;;;;;12.77;2.35;;;;;;;;;;5155880;27;20107;-74
2021/12/20 13:27:58;;;;;;;9.45;2.45;;;;;;;;;;5138749;27;20058;-74
2021/12/20 13:30:32;;;;;;;13.85;2.42;;;;;;;;;;5158242;27;20053;-75
2021/12/20 13:32:58;;;;;;;12.55;2.38;;;;;;;;;;5137196;27;20490;-73
2021/12/20 13:35:24;;;;;;;8.85;2.13;;;;;;;;;;5155578;27;20125;-73
2021/12/20 13:37:51;;;;;;;13.65;2.55;;;;;;;;;;5155619;27;20042;-74
2021/12/20 13:40:17;;;;;;;11.60;2.25;;;;;;;;;;5137434;27;20049;-73
2021/12/20 13:42:54;;;;;;;10.13;2.05;;;;;;;;;;5155499;27;20043;-74
2021/12/20 13:45:21;;;;;;;9.65;2.13;;;;;;;;;;5136901;27;20371;-73
2021/12/20 13:47:47;;;;;;;10.20;2.30;;;;;;;;;;5155473;27;20047;-74
2021/12/20 13:50:18;;;;;;;9.77;2.00;;;;;;;;;;5136726;27;20046;-72
2021/12/20 13:52:47;;;;;;;9.75;2.17;;;;;;;;;;5136710;27;20050;-73
2021/12/20 13:55:13;;;;;;;10.95;2.00;;;;;;;;;;5155192;27;20038;-72
2021/12/20 13:57:40;;;;;;;7.47;2.00;;;;;;;;;;5155140;27;20043;-74
2021/12/20 14:00:09;;;;;;;8.52;2.05;;;;;;;;;;5136556;27;20133;-73
2021/12/20 14:02:45;;;;;;;9.93;1.85;;;;;;;;;;5154961;27;20038;-72
2021/12/20 14:05:14;;;;;;;12.30;2.28;;;;;;;;;;5155244;27;20050;-72
2021/12/20 14:07:44;;;;;;;11.05;1.92;;;;;;;;;;5154905;27;20050;-72
2021/12/20 14:10:11;;;;;;;9.93;2.20;;;;;;;;;;5154814;27;20046;-71
2021/12/20 14:12:38;;;;;;;10.77;2.38;;;;;;;;;;5154695;27;20046;-72
2021/12/20 14:15:07;;;;;;;9.73;2.13;;;;;;;;;;5154499;27;20486;-73
2021/12/20 14:17:52;;;;;;;9.82;2.20;;;;;;;;;;5136518;27;20183;-72
2021/12/20 14:20:19;;;;;;;11.20;2.40;;;;;;;;;;5154461;27;20054;-72
2021/12/20 14:22:51;;;;;;;10.85;2.30;;;;;;;;;;5154527;27;20047;-72
2021/12/20 14:25:17;;;;;;;11.63;2.10;;;;;;;;;;5154389;27;20054;-71
2021/12/20 14:27:58;;;;;;;15.48;2.53;;;;;;;;;;5119041;27;20103;-72
2021/12/20 14:30:24;;;;;;;11.20;2.30;;;;;;;;;;5154737;27;20121;-72
2021/12/20 14:32:50;;;;;;;8.63;2.10;;;;;;;;;;5154252;27;20099;-68
2021/12/20 14:35:28;;;;;;;11.60;2.63;;;;;;;;;;5154631;27;20375;-71
2021/12/20 14:37:55;;;;;;;7.38;2.20;;;;;;;;;;5135805;27;20054;-73
2021/12/20 14:40:40;;;;;;;12.32;3.38;;;;;;;;;;5153941;27;20539;-74
2021/12/20 14:43:08;;;;;;;12.95;3.22;;;;;;;;;;5154308;27;20125;-73
2021/12/20 14:45:34;;;;;;;11.32;3.53;;;;;;;;;;5135360;27;20455;-73
2021/12/20 14:48:20;;;;;;;14.50;3.70;;;;;;;;;;5153787;27;20134;-73
2021/12/20 14:50:48;;;;;;;11.90;3.53;;;;;;;;;;5135332;27;20459;-73
2021/12/20 14:53:15;;;;;;;14.80;3.50;;;;;;;;;;5153371;27;20547;-73
2021/12/20 14:55:41;;;;;;;16.27;3.67;;;;;;;;;;5153906;27;20200;-74
2021/12/20 14:58:07;;;;;;;13.35;3.67;;;;;;;;;;5135336;27;20082;-72
2021/12/20 15:00:33;;;;;;;15.05;3.72;;;;;;;;;;5154310;27;20035;-72